Time;durP1;ratioP1;P1;durP2;ratioP2;P2;SDS_P1;SDS_P2;PMS_P1;PMS_P2;Temp;Humidity;BMP_temperature;BMP_pressure;BME280_temperature;BME280_humidity;BME280_pressure;Samples;Min_cycle;Max_cycle;Signal;HPM_P1;HPM_P2
2024/01/21 00:02:02;;;;;;;14.73;6.07;;;1.10;78.00;;;;;;5016327;28;20046;-84
2024/01/21 00:04:27;;;;;;;15.50;7.83;;;1.00;78.00;;;;;;5016125;28;20053;-84
2024/01/21 00:06:53;;;;;;;15.80;7.30;;;1.00;78.00;;;;;;5016256;28;20026;-85
2024/01/21 00:09:18;;;;;;;15.07;7.37;;;1.00;77.80;;;;;;5015104;28;20577;-85
2024/01/21 00:11:44;;;;;;;14.27;7.50;;;1.00;77.90;;;;;;5016039;28;20028;-85
2024/01/21 00:14:10;;;;;;;13.43;6.87;;;0.90;77.90;;;;;;5014782;28;20026;-84
2024/01/21 00:16:35;;;;;;;16.30;7.80;;;0.90;77.90;;;;;;5014686;28;20030;-84
2024/01/21 00:19:01;;;;;;;16.93;7.80;;;0.90;78.50;;;;;;5014619;28;20114;-84
2024/01/21 00:21:26;;;;;;;15.03;7.00;;;0.90;78.00;;;;;;5016000;28;20022;-85
2024/01/21 00:23:52;;;;;;;15.20;6.77;;;0.90;78.00;;;;;;5014417;28;20069;-84
2024/01/21 00:26:18;;;;;;;12.07;6.07;;;0.90;78.00;;;;;;5015923;28;20038;-85
2024/01/21 00:28:43;;;;;;;14.27;6.83;;;0.80;78.00;;;;;;5015852;28;20022;-85
2024/01/21 00:31:09;;;;;;;14.90;6.53;;;0.90;78.10;;;;;;5016574;28;20080;-84
2024/01/21 00:33:34;;;;;;;12.13;5.67;;;0.80;78.00;;;;;;5015421;28;20438;-84
2024/01/21 00:36:00;;;;;;;13.33;6.80;;;0.90;78.10;;;;;;5016027;28;20036;-84
2024/01/21 00:38:26;;;;;;;14.10;6.37;;;0.80;78.10;;;;;;5016007;28;20030;-84
2024/01/21 00:40:51;;;;;;;13.47;6.10;;;0.80;78.10;;;;;;5016418;28;20509;-84
2024/01/21 00:43:17;;;;;;;12.90;5.73;;;0.80;78.00;;;;;;5014676;28;20051;-84
2024/01/21 00:45:43;;;;;;;16.90;7.33;;;0.80;78.10;;;;;;5015542;28;20022;-84
2024/01/21 00:48:08;;;;;;;14.33;6.00;;;0.80;78.00;;;;;;5015164;28;20030;-84
2024/01/21 00:50:34;;;;;;;13.17;6.80;;;0.80;78.00;;;;;;5015443;28;20109;-85
2024/01/21 00:52:59;;;;;;;13.23;6.10;;;0.90;78.20;;;;;;5015313;28;20426;-85
2024/01/21 00:55:25;;;;;;;12.40;5.47;;;0.80;78.10;;;;;;5015473;28;20436;-85
2024/01/21 00:57:51;;;;;;;13.53;5.87;;;0.80;78.10;;;;;;5015287;28;20067;-84
2024/01/21 01:00:16;;;;;;;12.47;5.93;;;0.70;78.00;;;;;;5014526;28;20056;-85
2024/01/21 01:02:42;;;;;;;13.73;6.00;;;0.70;78.00;;;;;;5013692;28;20109;-84
2024/01/21 01:05:08;;;;;;;13.93;5.33;;;0.70;78.00;;;;;;5014929;28;20409;-84
2024/01/21 01:07:34;;;;;;;12.40;5.73;;;0.70;77.90;;;;;;5030500;28;20437;-84
2024/01/21 01:10:00;;;;;;;11.57;5.50;;;0.70;78.00;;;;;;5015010;28;20018;-84
2024/01/21 01:12:25;;;;;;;10.03;5.50;;;0.70;78.10;;;;;;5014720;28;20030;-84
2024/01/21 01:14:51;;;;;;;13.03;5.67;;;0.70;78.10;;;;;;5014705;28;20072;-84
2024/01/21 01:17:17;;;;;;;12.90;5.53;;;0.60;78.10;;;;;;5014592;28;20076;-84
2024/01/21 01:19:42;;;;;;;10.67;5.00;;;0.70;78.10;;;;;;5014846;28;20433;-84
2024/01/21 01:22:09;;;;;;;9.63;4.63;;;0.60;78.10;;;;;;5013358;28;20022;-85
2024/01/21 01:24:35;;;;;;;10.97;5.07;;;0.60;78.10;;;;;;5029629;28;20036;-85
2024/01/21 01:27:01;;;;;;;11.27;5.83;;;0.60;78.10;;;;;;5013147;28;20129;-84
2024/01/21 01:29:26;;;;;;;12.67;5.07;;;0.60;78.10;;;;;;5014336;28;20037;-85
2024/01/21 01:31:52;;;;;;;10.37;4.87;;;0.60;78.10;;;;;;5014097;28;20025;-85
2024/01/21 01:34:17;;;;;;;11.73;4.90;;;0.60;78.10;;;;;;5013084;28;20033;-85
2024/01/21 01:36:43;;;;;;;10.37;5.07;;;0.60;78.10;;;;;;5014742;28;20080;-85
2024/01/21 01:39:09;;;;;;;8.73;4.20;;;0.50;78.10;;;;;;5013295;28;20025;-85
2024/01/21 01:41:34;;;;;;;13.03;5.17;;;0.50;78.10;;;;;;5014524;28;20025;-85
2024/01/21 01:44:00;;;;;;;10.70;4.77;;;0.50;78.10;;;;;;5014145;28;20037;-84
2024/01/21 01:46:26;;;;;;;10.87;5.17;;;0.50;78.20;;;;;;5012845;28;20026;-85
2024/01/21 01:48:51;;;;;;;9.63;4.67;;;0.40;78.20;;;;;;5012773;28;20025;-85
2024/01/21 01:51:18;;;;;;;11.60;5.67;;;0.50;78.20;;;;;;5014388;28;20053;-84
2024/01/21 01:53:44;;;;;;;12.27;5.47;;;0.40;78.20;;;;;;5014039;28;20496;-85
2024/01/21 01:56:11;;;;;;;12.60;5.20;;;0.50;78.20;;;;;;5014224;28;20026;-84
2024/01/21 01:58:37;;;;;;;11.23;4.60;;;0.40;78.20;;;;;;5014042;28;20021;-84
2024/01/21 02:01:04;;;;;;;9.97;4.87;;;0.40;78.30;;;;;;5029212;28;20176;-84
2024/01/21 02:03:29;;;;;;;12.47;5.40;;;0.40;78.30;;;;;;5013991;28;20116;-85
2024/01/21 02:05:55;;;;;;;11.13;4.23;;;0.40;78.20;;;;;;5014096;28;20097;-85
2024/01/21 02:08:21;;;;;;;11.03;5.17;;;0.40;78.40;;;;;;5012681;28;20532;-84
2024/01/21 02:10:46;;;;;;;13.07;4.80;;;0.40;78.20;;;;;;5028887;28;20078;-85
2024/01/21 02:13:12;;;;;;;11.60;4.83;;;0.40;78.10;;;;;;5012197;28;20026;-84
2024/01/21 02:15:38;;;;;;;12.63;4.90;;;0.40;77.90;;;;;;5014026;28;20109;-85
2024/01/21 02:18:04;;;;;;;14.67;6.37;;;0.40;77.80;;;;;;5014094;28;20116;-85
2024/01/21 02:20:30;;;;;;;13.20;5.97;;;0.40;77.70;;;;;;5013774;28;20022;-84
2024/01/21 02:22:58;;;;;;;13.03;5.93;;;0.40;77.60;;;;;;5013549;28;20037;-84
2024/01/21 02:25:24;;;;;;;12.77;5.70;;;0.40;77.50;;;;;;5013929;28;20026;-84
2024/01/21 02:27:50;;;;;;;14.47;5.40;;;0.40;77.50;;;;;;5013165;28;20401;-84
2024/01/21 02:30:15;;;;;;;12.93;5.23;;;0.40;77.50;;;;;;5013751;28;20386;-84
2024/01/21 02:32:41;;;;;;;12.50;5.30;;;0.40;77.40;;;;;;5012102;28;20025;-84
2024/01/21 02:35:07;;;;;;;14.47;6.00;;;0.40;77.40;;;;;;5013512;28;20033;-84
2024/01/21 02:37:33;;;;;;;11.53;5.20;;;0.40;77.40;;;;;;5012285;28;20026;-84
2024/01/21 02:39:58;;;;;;;12.17;5.97;;;0.30;77.20;;;;;;5028709;28;20026;-84
2024/01/21 02:42:26;;;;;;;14.40;5.93;;;0.30;77.30;;;;;;5013142;28;20049;-84
2024/01/21 02:44:52;;;;;;;16.83;6.17;;;0.30;77.40;;;;;;5013248;28;20026;-84
2024/01/21 02:47:17;;;;;;;13.87;6.03;;;0.30;77.50;;;;;;5012152;28;20018;-84
2024/01/21 02:49:43;;;;;;;12.23;5.27;;;0.30;77.50;;;;;;5012097;28;20022;-83
2024/01/21 02:52:09;;;;;;;13.03;5.70;;;0.30;77.50;;;;;;5013405;28;20026;-83
2024/01/21 02:54:35;;;;;;;13.33;5.90;;;0.30;77.50;;;;;;5013190;28;20085;-84
2024/01/21 02:57:00;;;;;;;13.93;6.93;;;0.30;77.50;;;;;;5012778;28;20030;-84
2024/01/21 02:59:26;;;;;;;13.47;6.50;;;0.30;77.50;;;;;;5028520;28;20031;-84
2024/01/21 03:01:51;;;;;;;13.53;5.97;;;0.30;77.40;;;;;;5013562;28;20041;-84
2024/01/21 03:04:17;;;;;;;11.43;5.47;;;0.30;77.20;;;;;;5012955;28;20037;-84
2024/01/21 03:06:44;;;;;;;11.93;5.53;;;0.30;77.20;;;;;;5028541;28;20022;-85
2024/01/21 03:09:09;;;;;;;11.70;5.57;;;0.30;77.20;;;;;;5011703;28;20471;-84
2024/01/21 03:11:37;;;;;;;12.80;5.83;;;0.40;77.40;;;;;;5012889;28;20037;-84
2024/01/21 03:14:02;;;;;;;11.57;4.93;;;0.40;77.30;;;;;;5013017;28;20026;-84
2024/01/21 03:16:28;;;;;;;11.23;5.63;;;0.40;77.30;;;;;;5013225;28;20048;-84
2024/01/21 03:18:54;;;;;;;11.23;5.27;;;0.40;77.20;;;;;;5011532;28;20093;-84
2024/01/21 03:21:19;;;;;;;10.67;4.87;;;0.50;77.40;;;;;;5012997;28;20104;-84
2024/01/21 03:23:45;;;;;;;12.37;5.60;;;0.60;78.10;;;;;;5016117;28;20125;-84
2024/01/21 03:26:11;;;;;;;11.60;4.97;;;0.50;77.40;;;;;;5016352;28;20045;-84
2024/01/21 03:28:36;;;;;;;12.80;5.37;;;0.60;77.40;;;;;;5016640;28;20033;-84
2024/01/21 03:31:02;;;;;;;11.40;4.97;;;0.60;77.40;;;;;;5031872;28;20092;-84
2024/01/21 03:33:28;;;;;;;11.00;4.73;;;0.60;77.40;;;;;;5014966;28;20478;-84
2024/01/21 03:35:53;;;;;;;12.63;4.83;;;0.60;77.30;;;;;;5016750;28;20037;-83
2024/01/21 03:38:19;;;;;;;11.43;4.87;;;0.60;77.00;;;;;;5015286;28;20026;-84
2024/01/21 03:40:45;;;;;;;11.17;4.90;;;0.70;77.20;;;;;;5016234;28;20033;-84
2024/01/21 03:43:10;;;;;;;9.33;4.13;;;0.70;77.30;;;;;;5015160;28;20025;-84
2024/01/21 03:45:36;;;;;;;9.73;3.67;;;0.70;77.30;;;;;;5016520;28;20390;-84
2024/01/21 03:48:03;;;;;;;9.40;3.80;;;0.70;77.40;;;;;;5016423;28;20149;-84
2024/01/21 03:50:28;;;;;;;10.27;4.33;;;0.70;77.30;;;;;;5015340;28;20478;-84
2024/01/21 03:52:54;;;;;;;8.90;3.50;;;0.70;77.20;;;;;;5016273;28;20101;-84
2024/01/21 03:55:22;;;;;;;9.40;3.83;;;0.80;77.40;;;;;;5014737;28;20030;-84
2024/01/21 03:57:48;;;;;;;9.07;3.83;;;0.80;77.30;;;;;;5016307;28;20026;-84
2024/01/21 04:00:14;;;;;;;10.50;4.60;;;0.80;77.30;;;;;;5016276;28;20104;-84
2024/01/21 04:02:40;;;;;;;8.23;3.57;;;0.80;77.20;;;;;;5031225;28;20030;-84
2024/01/21 04:05:06;;;;;;;8.73;3.30;;;0.80;77.00;;;;;;5016030;28;20485;-84
2024/01/21 04:07:32;;;;;;;9.37;3.30;;;0.80;77.00;;;;;;5016227;28;20121;-82
2024/01/21 04:09:58;;;;;;;9.13;4.10;;;0.80;76.90;;;;;;5015794;28;20030;-84
2024/01/21 04:12:24;;;;;;;8.23;3.50;;;0.90;76.80;;;;;;5015897;28;20022;-84
2024/01/21 04:14:49;;;;;;;6.70;3.13;;;0.80;76.90;;;;;;5014390;28;20029;-84
2024/01/21 04:17:15;;;;;;;8.77;3.57;;;0.80;76.80;;;;;;5025132;28;20053;-84
2024/01/21 04:19:41;;;;;;;7.07;2.93;;;0.90;76.50;;;;;;5035526;28;20036;-84
2024/01/21 04:22:07;;;;;;;8.63;2.97;;;0.90;76.70;;;;;;5035613;28;20481;-82
2024/01/21 04:24:32;;;;;;;7.73;3.13;;;0.80;76.60;;;;;;5033589;28;20036;-84
2024/01/21 04:26:58;;;;;;;6.67;3.10;;;0.80;76.40;;;;;;5035287;28;20049;-84
2024/01/21 04:29:24;;;;;;;6.13;2.67;;;0.90;75.80;;;;;;5035597;28;20029;-84
2024/01/21 04:31:50;;;;;;;6.43;2.70;;;0.90;75.60;;;;;;5033822;28;20071;-83
2024/01/21 04:34:15;;;;;;;8.90;3.27;;;0.90;75.20;;;;;;5033583;28;20112;-84
2024/01/21 04:36:41;;;;;;;7.23;2.67;;;1.00;73.40;;;;;;5034993;28;20623;-84
2024/01/21 04:39:07;;;;;;;7.90;3.20;;;0.90;73.30;;;;;;5034940;28;20026;-83
2024/01/21 04:41:32;;;;;;;7.90;2.57;;;1.00;72.70;;;;;;5035041;28;20493;-84
2024/01/21 04:43:58;;;;;;;8.50;2.83;;;1.10;72.10;;;;;;5033722;28;20025;-84
2024/01/21 04:46:24;;;;;;;7.17;2.47;;;1.10;71.70;;;;;;5033891;28;20465;-83
2024/01/21 04:48:50;;;;;;;5.43;2.40;;;1.10;70.80;;;;;;5035409;28;20025;-84
2024/01/21 04:51:16;;;;;;;7.77;2.47;;;1.10;70.30;;;;;;5035081;28;20078;-83
2024/01/21 04:53:42;;;;;;;5.63;2.20;;;1.30;70.60;;;;;;5034020;28;20124;-84
2024/01/21 04:56:16;;;;;;;7.33;2.90;;;1.30;70.40;;;;;;5034617;28;20105;-83
2024/01/21 04:58:42;;;;;;;6.15;2.40;;;1.30;70.50;;;;;;5034972;28;20032;-84
2024/01/21 05:01:07;;;;;;;9.63;3.20;;;1.30;69.70;;;;;;5034619;28;20029;-83
2024/01/21 05:03:33;;;;;;;8.03;2.70;;;1.40;69.70;;;;;;5033654;28;20048;-83
2024/01/21 05:05:59;;;;;;;7.53;2.73;;;1.40;69.40;;;;;;5033099;28;20064;-83
2024/01/21 05:08:25;;;;;;;7.50;2.70;;;1.40;69.00;;;;;;5033282;28;20087;-84
2024/01/21 05:10:51;;;;;;;8.60;3.20;;;1.50;69.20;;;;;;5034463;28;20041;-84
2024/01/21 05:13:17;;;;;;;6.43;2.50;;;1.50;69.50;;;;;;5034930;28;20056;-84
2024/01/21 05:15:43;;;;;;;7.17;2.83;;;1.50;69.20;;;;;;5034605;28;20029;-84
2024/01/21 05:18:08;;;;;;;7.53;3.50;;;1.60;68.60;;;;;;5034578;28;20026;-85
2024/01/21 05:20:34;;;;;;;6.07;2.50;;;1.60;68.10;;;;;;5033515;28;20381;-85
2024/01/21 05:23:00;;;;;;;10.27;3.13;;;1.70;68.30;;;;;;5033038;28;20029;-83
2024/01/21 05:25:26;;;;;;;8.17;2.90;;;1.70;68.20;;;;;;5034174;28;20044;-84
2024/01/21 05:27:51;;;;;;;7.83;2.80;;;1.60;68.40;;;;;;5034296;28;20049;-84
2024/01/21 05:30:17;;;;;;;8.67;3.07;;;1.70;68.70;;;;;;5034356;28;20044;-84
2024/01/21 05:32:46;;;;;;;6.67;2.90;;;1.70;68.50;;;;;;5034146;28;20036;-84
2024/01/21 05:35:14;;;;;;;7.70;3.77;;;1.70;67.90;;;;;;5019551;28;20030;-84
2024/01/21 05:37:40;;;;;;;8.83;3.03;;;1.70;68.20;;;;;;5019169;28;20436;-84
2024/01/21 05:40:06;;;;;;;9.10;3.30;;;1.70;69.10;;;;;;5032491;28;20029;-84
2024/01/21 05:42:32;;;;;;;7.93;3.30;;;1.70;68.50;;;;;;5033905;28;20497;-84
2024/01/21 05:44:58;;;;;;;8.37;3.00;;;1.70;68.50;;;;;;5033938;28;20027;-85
2024/01/21 05:47:24;;;;;;;7.03;3.10;;;1.60;68.60;;;;;;5031893;28;20056;-84
2024/01/21 05:49:49;;;;;;;10.60;4.03;;;1.70;68.70;;;;;;5033947;28;20029;-84
2024/01/21 05:52:15;;;;;;;10.57;3.70;;;1.70;68.80;;;;;;5034191;28;20083;-83
2024/01/21 05:54:41;;;;;;;7.53;3.13;;;1.70;69.20;;;;;;5033933;28;20030;-85
2024/01/21 05:57:06;;;;;;;7.43;3.03;;;1.70;69.20;;;;;;5033831;28;20028;-82
2024/01/21 05:59:32;;;;;;;6.23;2.83;;;1.70;69.20;;;;;;5033505;28;20032;-83
2024/01/21 06:01:59;;;;;;;7.77;3.20;;;1.80;69.50;;;;;;5033649;28;20033;-83
2024/01/21 06:04:25;;;;;;;10.57;3.47;;;1.70;69.40;;;;;;5032431;28;20029;-84
2024/01/21 06:06:51;;;;;;;10.30;4.03;;;1.70;69.40;;;;;;5033457;28;20043;-85
2024/01/21 06:09:17;;;;;;;9.50;3.30;;;1.60;69.70;;;;;;5032253;28;20017;-84
2024/01/21 06:11:46;;;;;;;8.83;3.17;;;1.70;69.70;;;;;;5032076;28;20580;-85
2024/01/21 06:14:12;;;;;;;7.07;3.13;;;1.70;69.90;;;;;;5032377;28;20448;-84
2024/01/21 06:16:38;;;;;;;10.00;3.57;;;1.60;70.00;;;;;;5033660;28;20053;-85
2024/01/21 06:19:04;;;;;;;8.60;3.93;;;1.60;70.30;;;;;;5033276;28;20025;-84
2024/01/21 06:21:30;;;;;;;10.97;3.97;;;1.60;70.50;;;;;;5033419;28;20025;-83
2024/01/21 06:23:56;;;;;;;7.93;3.97;;;1.60;70.60;;;;;;5031906;28;20025;-83
2024/01/21 06:26:22;;;;;;;8.93;3.60;;;1.70;70.70;;;;;;5031941;28;20378;-83
2024/01/21 06:28:51;;;;;;;12.03;4.20;;;1.70;70.80;;;;;;5031910;28;20389;-84
2024/01/21 06:31:18;;;;;;;9.57;3.63;;;1.70;71.00;;;;;;5033480;28;20021;-81
2024/01/21 06:33:44;;;;;;;10.43;3.80;;;1.70;71.10;;;;;;5032770;28;20029;-83
2024/01/21 06:36:10;;;;;;;10.23;4.13;;;1.70;71.10;;;;;;5031504;28;20092;-83
2024/01/21 06:38:37;;;;;;;10.10;4.00;;;1.70;71.10;;;;;;5031812;28;20473;-82
2024/01/21 06:41:03;;;;;;;10.80;4.47;;;1.80;71.30;;;;;;5031899;28;20018;-83
2024/01/21 06:43:29;;;;;;;11.63;4.60;;;1.80;71.30;;;;;;5031672;28;20512;-82
2024/01/21 06:45:54;;;;;;;9.73;4.10;;;2.00;71.60;;;;;;5032693;28;20540;-82
2024/01/21 06:48:20;;;;;;;9.23;3.90;;;1.80;71.50;;;;;;5033511;28;20034;-82
2024/01/21 06:50:50;;;;;;;10.43;4.00;;;1.90;71.60;;;;;;5031848;28;20021;-83
2024/01/21 06:53:16;;;;;;;12.90;4.60;;;1.90;71.50;;;;;;5033052;28;20067;-83
2024/01/21 06:55:43;;;;;;;10.80;4.57;;;1.90;71.60;;;;;;5031417;28;20021;-83
2024/01/21 06:58:09;;;;;;;7.97;3.70;;;1.90;71.70;;;;;;5034992;28;20100;-84
2024/01/21 07:00:35;;;;;;;10.23;4.33;;;2.00;71.90;;;;;;5035796;28;20057;-84
2024/01/21 07:03:00;;;;;;;11.00;4.33;;;2.00;71.70;;;;;;5036854;28;20036;-83
2024/01/21 07:05:26;;;;;;;10.00;4.53;;;2.10;71.70;;;;;;5035689;28;20026;-83
2024/01/21 07:07:51;;;;;;;8.97;4.50;;;2.10;71.80;;;;;;5036715;28;20025;-83
2024/01/21 07:10:17;;;;;;;9.70;4.57;;;2.10;71.80;;;;;;5036808;28;20409;-83
2024/01/21 07:12:43;;;;;;;9.93;4.50;;;2.10;71.70;;;;;;5035467;28;20072;-83
2024/01/21 07:15:09;;;;;;;13.57;5.27;;;2.10;71.60;;;;;;5036764;28;20025;-82
2024/01/21 07:17:35;;;;;;;13.53;5.53;;;2.20;71.60;;;;;;5035229;28;20469;-82
2024/01/21 07:20:01;;;;;;;10.97;5.60;;;2.20;71.30;;;;;;5036706;28;20017;-83
2024/01/21 07:22:27;;;;;;;11.70;5.17;;;2.20;71.10;;;;;;5036624;28;20036;-82
2024/01/21 07:24:53;;;;;;;10.57;4.77;;;2.20;71.20;;;;;;5036597;28;20076;-83
2024/01/21 07:27:19;;;;;;;10.67;4.73;;;2.20;71.00;;;;;;5036426;28;20170;-82
2024/01/21 07:29:44;;;;;;;10.20;4.50;;;2.20;70.70;;;;;;5034884;28;20045;-83
2024/01/21 07:32:10;;;;;;;10.80;4.53;;;2.20;70.30;;;;;;5036256;28;20029;-83
2024/01/21 07:34:36;;;;;;;10.47;4.97;;;2.30;70.10;;;;;;5035417;28;20033;-81
2024/01/21 07:37:02;;;;;;;11.77;5.00;;;2.40;69.80;;;;;;5035189;28;20021;-81
2024/01/21 07:39:27;;;;;;;10.23;4.70;;;2.40;69.70;;;;;;5036461;28;20516;-82
2024/01/21 07:41:53;;;;;;;9.47;4.37;;;2.50;69.30;;;;;;5034716;28;20053;-83
2024/01/21 07:44:18;;;;;;;12.23;5.67;;;2.50;69.60;;;;;;5035936;28;20466;-83
2024/01/21 07:46:44;;;;;;;9.43;4.67;;;2.50;69.20;;;;;;5035150;28;20032;-83
2024/01/21 07:49:10;;;;;;;9.13;4.00;;;2.60;68.70;;;;;;5034890;28;20013;-83
2024/01/21 07:51:35;;;;;;;12.17;5.20;;;2.60;69.00;;;;;;5034780;28;20113;-81
2024/01/21 07:54:01;;;;;;;11.13;4.77;;;2.60;68.80;;;;;;5034972;28;20381;-82
2024/01/21 07:56:26;;;;;;;10.33;4.63;;;2.70;68.20;;;;;;5035882;28;20032;-84
2024/01/21 07:58:52;;;;;;;9.73;4.50;;;2.60;68.20;;;;;;5034695;28;20029;-84
2024/01/21 08:01:21;;;;;;;10.77;5.00;;;2.70;68.10;;;;;;5034661;28;20036;-84
2024/01/21 08:03:47;;;;;;;11.00;5.17;;;2.80;68.20;;;;;;5035729;28;20029;-84
2024/01/21 08:06:13;;;;;;;10.77;4.70;;;2.70;67.80;;;;;;5027953;28;20489;-85
2024/01/21 08:08:39;;;;;;;9.83;4.77;;;2.80;67.70;;;;;;5018294;28;20091;-83
2024/01/21 08:11:05;;;;;;;13.80;4.53;;;2.80;68.00;;;;;;5015167;28;20394;-83
2024/01/21 08:13:31;;;;;;;10.73;4.70;;;2.90;67.90;;;;;;5021688;28;20026;-83
2024/01/21 08:15:57;;;;;;;9.13;4.80;;;2.90;67.40;;;;;;5034696;28;20495;-83
2024/01/21 08:18:23;;;;;;;12.00;5.00;;;2.90;67.80;;;;;;5044182;28;20037;-83
2024/01/21 08:20:48;;;;;;;10.87;4.93;;;3.00;67.40;;;;;;5048028;28;20385;-82
2024/01/21 08:23:15;;;;;;;11.43;4.77;;;3.00;67.60;;;;;;5039533;28;20017;-84
2024/01/21 08:25:41;;;;;;;9.47;4.50;;;3.00;68.00;;;;;;5050375;28;20575;-82
2024/01/21 08:28:06;;;;;;;12.03;5.17;;;3.10;67.60;;;;;;5033994;28;20046;-85
2024/01/21 08:30:32;;;;;;;11.30;4.40;;;3.20;67.70;;;;;;5035523;28;20458;-84
2024/01/21 08:32:57;;;;;;;11.47;4.70;;;3.10;67.50;;;;;;5042336;28;20065;-83
2024/01/21 08:35:23;;;;;;;10.73;4.97;;;3.10;67.70;;;;;;5044127;28;20178;-83
2024/01/21 08:37:49;;;;;;;11.33;5.23;;;3.20;67.70;;;;;;5042114;28;20029;-84
2024/01/21 08:40:15;;;;;;;10.60;4.50;;;3.10;67.80;;;;;;5054912;28;20033;-84
2024/01/21 08:42:41;;;;;;;10.70;4.70;;;3.20;67.50;;;;;;5045369;28;20436;-84
2024/01/21 08:45:07;;;;;;;9.53;4.00;;;3.20;67.70;;;;;;5034933;28;20033;-83
2024/01/21 08:47:33;;;;;;;11.10;4.77;;;3.20;67.80;;;;;;5033577;28;20025;-83
2024/01/21 08:49:59;;;;;;;10.77;4.63;;;3.30;67.50;;;;;;5038314;28;20094;-83
2024/01/21 08:52:25;;;;;;;10.67;4.80;;;3.30;67.90;;;;;;5054585;28;20080;-84
2024/01/21 08:54:50;;;;;;;11.90;5.23;;;3.30;67.70;;;;;;5037764;28;20025;-83
2024/01/21 08:57:16;;;;;;;9.40;4.23;;;3.40;67.70;;;;;;5051525;28;20028;-85
2024/01/21 08:59:42;;;;;;;10.33;4.77;;;3.40;67.80;;;;;;5054262;28;20098;-85
2024/01/21 09:02:08;;;;;;;11.37;4.87;;;3.50;68.10;;;;;;5054561;28;20029;-83
2024/01/21 09:04:34;;;;;;;10.63;4.70;;;3.50;67.70;;;;;;5040242;28;20457;-84
2024/01/21 09:06:59;;;;;;;11.67;5.23;;;3.50;67.70;;;;;;5033211;28;20105;-84
2024/01/21 09:09:25;;;;;;;9.97;4.77;;;3.50;67.90;;;;;;5034442;28;20429;-84
2024/01/21 09:11:51;;;;;;;9.20;4.50;;;3.50;68.20;;;;;;5047452;28;20100;-82
2024/01/21 09:14:18;;;;;;;9.90;4.67;;;3.50;68.30;;;;;;5048421;28;20055;-85
2024/01/21 09:16:43;;;;;;;11.47;5.30;;;3.60;68.60;;;;;;5043593;28;20017;-83
2024/01/21 09:19:09;;;;;;;10.40;4.80;;;3.60;68.70;;;;;;5056114;28;20108;-83
2024/01/21 09:21:35;;;;;;;10.63;5.27;;;3.70;69.00;;;;;;5047927;28;20025;-84
2024/01/21 09:24:03;;;;;;;11.87;5.07;;;3.70;69.20;;;;;;5035801;28;20487;-82
2024/01/21 09:26:31;;;;;;;10.90;4.87;;;3.70;69.30;;;;;;5052876;28;20132;-81
2024/01/21 09:28:57;;;;;;;10.70;4.50;;;3.80;69.70;;;;;;5052552;28;20437;-84
2024/01/21 09:31:22;;;;;;;8.43;4.27;;;3.80;70.00;;;;;;5054080;28;20036;-82
2024/01/21 09:33:48;;;;;;;11.53;4.93;;;3.80;70.20;;;;;;5033634;28;20543;-83
2024/01/21 09:36:15;;;;;;;10.97;4.60;;;3.80;70.60;;;;;;5032931;28;20359;-82
2024/01/21 09:38:41;;;;;;;10.50;4.80;;;3.80;71.10;;;;;;5040561;28;20017;-83
2024/01/21 09:41:30;;;;;;;11.60;4.97;;;3.80;71.50;;;;;;5051380;28;20022;-83
2024/01/21 09:43:56;;;;;;;11.13;4.27;;;3.90;71.70;;;;;;5053011;28;20173;-86
2024/01/21 09:46:23;;;;;;;11.50;4.60;;;3.90;72.20;;;;;;5034003;28;20021;-82
2024/01/21 09:48:51;;;;;;;12.00;4.67;;;3.80;72.50;;;;;;5032711;28;20049;-83
2024/01/21 09:51:20;;;;;;;11.00;4.77;;;3.90;72.60;;;;;;5051062;28;20032;-82
2024/01/21 09:53:49;;;;;;;9.87;4.57;;;3.90;72.90;;;;;;5049076;28;20381;-84
2024/01/21 09:56:17;;;;;;;10.90;4.53;;;3.90;73.20;;;;;;5033635;28;20109;-85
2024/01/21 09:58:48;;;;;;;10.17;4.77;;;4.00;73.80;;;;;;5031553;28;20613;-84
2024/01/21 10:01:18;;;;;;;9.17;4.97;;;4.00;74.40;;;;;;5040251;28;20104;-85
2024/01/21 10:03:44;;;;;;;8.33;4.30;;;4.00;75.10;;;;;;5051981;28;20119;-84
2024/01/21 10:06:10;;;;;;;11.33;4.60;;;4.00;75.70;;;;;;5044405;28;20430;-83
2024/01/21 10:08:40;;;;;;;9.63;4.03;;;4.00;75.80;;;;;;5046340;28;20043;-84
2024/01/21 10:11:06;;;;;;;11.17;4.60;;;4.00;76.20;;;;;;5049777;28;20076;-79
2024/01/21 10:13:35;;;;;;;11.07;4.57;;;4.00;76.00;;;;;;5043678;28;20014;-83
2024/01/21 10:16:00;;;;;;;9.87;4.67;;;4.10;76.30;;;;;;5041930;28;20028;-83
2024/01/21 10:18:29;;;;;;;9.33;4.63;;;4.10;76.80;;;;;;5041304;28;20608;-84
2024/01/21 10:20:57;;;;;;;8.93;4.30;;;4.20;77.10;;;;;;5032563;28;20025;-84
2024/01/21 10:23:22;;;;;;;11.07;4.43;;;4.20;77.50;;;;;;5032425;28;20103;-86
2024/01/21 10:25:48;;;;;;;11.60;5.13;;;4.20;78.10;;;;;;5032839;28;20057;-84
2024/01/21 10:28:15;;;;;;;8.90;3.97;;;4.30;79.00;;;;;;5032646;28;20029;-85
2024/01/21 10:30:44;;;;;;;9.87;4.63;;;4.30;79.40;;;;;;5031454;28;20025;-85
2024/01/21 10:33:11;;;;;;;8.77;4.10;;;4.40;79.60;;;;;;5031854;28;20076;-85
2024/01/21 10:35:36;;;;;;;10.60;4.40;;;4.30;79.40;;;;;;5035581;28;20025;-86
2024/01/21 10:38:02;;;;;;;9.77;4.17;;;4.40;79.80;;;;;;5027966;28;20216;-85
2024/01/21 10:40:28;;;;;;;12.07;4.97;;;4.40;80.60;;;;;;5050607;28;20358;-84
2024/01/21 10:42:58;;;;;;;9.00;4.43;;;4.40;81.60;;;;;;5038378;28;20087;-88
2024/01/21 10:45:25;;;;;;;11.03;5.00;;;4.30;81.90;;;;;;5049042;28;20056;-87
2024/01/21 10:47:53;;;;;;;10.70;4.90;;;4.30;82.70;;;;;;5044048;28;20025;-86
2024/01/21 10:50:22;;;;;;;10.23;4.77;;;4.30;83.00;;;;;;5039489;28;20029;-86
2024/01/21 10:52:49;;;;;;;10.50;5.23;;;4.40;83.50;;;;;;5038918;28;20068;-84
2024/01/21 10:55:15;;;;;;;10.47;5.17;;;4.40;84.20;;;;;;5041251;28;20040;-85
2024/01/21 10:57:47;;;;;;;10.43;4.80;;;4.40;84.70;;;;;;5039445;28;20032;-84
2024/01/21 11:00:14;;;;;;;12.23;5.07;;;4.40;85.40;;;;;;5035992;28;20024;-86
2024/01/21 11:02:40;;;;;;;9.93;4.97;;;4.40;85.70;;;;;;5035326;28;20076;-86
2024/01/21 11:05:06;;;;;;;9.13;4.80;;;4.40;85.90;;;;;;5044567;28;20132;-84
2024/01/21 11:07:32;;;;;;;10.27;4.77;;;4.50;86.00;;;;;;5032927;28;20084;-86
2024/01/21 11:10:01;;;;;;;9.90;4.57;;;4.50;86.30;;;;;;5033424;28;20054;-87
2024/01/21 11:12:28;;;;;;;10.03;5.43;;;4.50;86.60;;;;;;5033240;28;20059;-87
2024/01/21 11:14:53;;;;;;;10.93;4.50;;;4.50;87.00;;;;;;5033124;28;20030;-85
2024/01/21 11:17:19;;;;;;;10.17;4.20;;;4.50;87.20;;;;;;5032194;28;20023;-87
2024/01/21 11:19:47;;;;;;;9.53;4.13;;;4.60;87.20;;;;;;5033151;28;20026;-86
2024/01/21 11:22:14;;;;;;;10.30;4.37;;;4.50;87.00;;;;;;5033100;28;20025;-85
2024/01/21 11:24:41;;;;;;;9.30;4.60;;;4.60;87.10;;;;;;5032798;28;20054;-85
2024/01/21 11:27:19;;;;;;;8.20;4.10;;;4.70;87.50;;;;;;5031907;28;20042;-86
2024/01/21 11:29:48;;;;;;;10.77;5.33;;;4.60;87.20;;;;;;5032702;28;20022;-85
2024/01/21 11:32:14;;;;;;;7.57;3.93;;;4.60;87.90;;;;;;5031424;28;20102;-86
2024/01/21 11:34:45;;;;;;;11.27;5.00;;;4.60;88.00;;;;;;5031444;28;20065;-86
2024/01/21 11:37:13;;;;;;;12.07;5.37;;;4.60;88.40;;;;;;5032959;28;20033;-85
2024/01/21 11:39:40;;;;;;;13.73;5.70;;;4.70;88.50;;;;;;5032503;28;20026;-86
2024/01/21 11:42:06;;;;;;;10.93;5.67;;;4.70;88.70;;;;;;5032699;28;20105;-87
2024/01/21 11:44:33;;;;;;;10.83;5.00;;;4.70;88.80;;;;;;5034960;28;20059;-86
2024/01/21 11:47:04;;;;;;;9.40;4.90;;;4.70;88.90;;;;;;5035620;28;20032;-87
2024/01/21 11:49:31;;;;;;;11.63;5.30;;;4.70;88.80;;;;;;5035750;28;20176;-88
2024/01/21 11:51:59;;;;;;;9.07;4.40;;;4.70;88.80;;;;;;5035153;28;20071;-83
2024/01/21 11:54:25;;;;;;;9.40;4.47;;;4.80;88.90;;;;;;5036056;28;20052;-88
2024/01/21 11:56:52;;;;;;;11.57;5.23;;;4.80;88.90;;;;;;5036410;28;20034;-87
2024/01/21 11:59:19;;;;;;;10.87;5.23;;;4.80;88.80;;;;;;5036057;28;20033;-88
2024/01/21 12:01:47;;;;;;;11.10;5.50;;;4.80;88.80;;;;;;5036225;28;20026;-86
2024/01/21 12:04:12;;;;;;;11.37;4.83;;;4.80;88.80;;;;;;5036225;28;20226;-89
2024/01/21 12:06:44;;;;;;;11.13;5.43;;;4.80;88.60;;;;;;5036231;28;20484;-85
2024/01/21 12:09:11;;;;;;;9.30;4.67;;;4.80;88.50;;;;;;5036979;28;20099;-86
2024/01/21 12:11:38;;;;;;;10.67;5.40;;;4.90;88.40;;;;;;5035473;28;20026;-86
2024/01/21 12:14:06;;;;;;;12.13;5.50;;;4.90;88.40;;;;;;5035637;28;20013;-85
2024/01/21 12:16:33;;;;;;;9.93;5.30;;;4.90;88.20;;;;;;5035973;28;20025;-86
2024/01/21 12:19:00;;;;;;;11.00;5.63;;;5.00;88.20;;;;;;5034866;28;20029;-84
2024/01/21 12:21:27;;;;;;;10.93;5.73;;;5.00;88.20;;;;;;5034837;28;20048;-84
2024/01/21 12:23:53;;;;;;;12.03;5.97;;;5.00;88.20;;;;;;5033554;28;20049;-86
2024/01/21 12:26:21;;;;;;;11.17;5.40;;;5.00;88.30;;;;;;5035177;28;20055;-86
2024/01/21 12:29:03;;;;;;;12.20;5.77;;;5.00;88.30;;;;;;5033965;28;20083;-85
2024/01/21 12:31:33;;;;;;;11.87;5.70;;;5.00;88.50;;;;;;5033897;28;20029;-85
2024/01/21 12:34:07;;;;;;;11.50;5.90;;;5.00;88.70;;;;;;5033117;28;20017;-84
2024/01/21 12:36:41;;;;;;;10.73;5.35;;;5.00;88.90;;;;;;5036254;28;20025;-87
2024/01/21 12:39:09;;;;;;;9.43;4.87;;;5.10;89.20;;;;;;5033197;28;20540;-83
2024/01/21 12:41:35;;;;;;;11.17;5.43;;;5.10;89.40;;;;;;5033803;28;20027;-84
2024/01/21 12:44:01;;;;;;;12.17;6.27;;;5.10;89.60;;;;;;5035512;28;20117;-85
2024/01/21 12:46:27;;;;;;;11.13;5.40;;;5.10;89.50;;;;;;5031087;28;20389;-84